ZSSS/SHA METAR and TAF weather

Enter ICAO airport designator
Station Type Date Time Source
ZSSS METAR 2019/12/07 15:00 UTC NOAA

ZSSS 071500Z VRB01MPS CAVOK 05/M01 Q1032 NOSIG


Station Type Date Time Source
ZSSS Decoded METAR 2019/12/07 15:00 UTC NOAA

Shanghai / Hongqiao, China (ZSSS) 31-10N 121-26E 3M
Dec 07, 2019 - 10:00 AM EST / 2019.12.07 1500 UTC
Wind: Variable at 2 MPH (2 KT):0
Visibility: greater than 7 mile(s):0
Temperature: 41 F (5 C)
Dew Point: 30 F (-1 C)
Relative Humidity: 65%
Pressure (altimeter): 30.47 in. Hg (1032 hPa)
ob: ZSSS 071500Z VRB01MPS CAVOK 05/M01 Q1032 NOSIG
cycle: 15

Station Type Date Time Source
ZSSS TAF 2019/12/07 12:03 UTC NOAA

TAF ZSSS 070912Z 0712/0812 01004MPS 6000 SCT030 TX12/0806Z TN03/0721Z
BECMG 0806/0808 17004MPS

Example: see airport list